sensor_id;sensor_type;location;lat;lon;timestamp;pressure;altitude;pressure_sealevel;temperature
73685;BMP280;61985;51.070;14.064;2024-03-02T00:02:24;97588.19;;;8.72
73685;BMP280;61985;51.070;14.064;2024-03-02T00:04:50;97588.47;;;8.74
73685;BMP280;61985;51.070;14.064;2024-03-02T00:07:16;97583.88;;;8.74
73685;BMP280;61985;51.070;14.064;2024-03-02T00:09:41;97580.88;;;8.72
73685;BMP280;61985;51.070;14.064;2024-03-02T00:12:08;97583.25;;;8.70
73685;BMP280;61985;51.070;14.064;2024-03-02T00:14:33;97581.72;;;8.69
73685;BMP280;61985;51.070;14.064;2024-03-02T00:16:59;97578.41;;;8.65
73685;BMP280;61985;51.070;14.064;2024-03-02T00:19:24;97578.41;;;8.65
73685;BMP280;61985;51.070;14.064;2024-03-02T00:21:50;97584.22;;;8.64
73685;BMP280;61985;51.070;14.064;2024-03-02T00:24:32;97574.22;;;8.64
73685;BMP280;61985;51.070;14.064;2024-03-02T00:26:59;97579.31;;;8.62
73685;BMP280;61985;51.070;14.064;2024-03-02T00:29:24;97574.69;;;8.63
73685;BMP280;61985;51.070;14.064;2024-03-02T00:31:50;97582.72;;;8.63
73685;BMP280;61985;51.070;14.064;2024-03-02T00:34:17;97581.22;;;8.62
73685;BMP280;61985;51.070;14.064;2024-03-02T00:36:42;97585.84;;;8.61
73685;BMP280;61985;51.070;14.064;2024-03-02T00:39:08;97583.59;;;8.60
73685;BMP280;61985;51.070;14.064;2024-03-02T00:41:33;97579.75;;;8.61
73685;BMP280;61985;51.070;14.064;2024-03-02T00:44:01;97576.72;;;8.59
73685;BMP280;61985;51.070;14.064;2024-03-02T00:46:35;97567.59;;;8.56
73685;BMP280;61985;51.070;14.064;2024-03-02T00:49:02;97581.47;;;8.54
73685;BMP280;61985;51.070;14.064;2024-03-02T00:51:29;97585.31;;;8.53
73685;BMP280;61985;51.070;14.064;2024-03-02T00:53:58;97581.56;;;8.51
73685;BMP280;61985;51.070;14.064;2024-03-02T00:56:24;97582.00;;;8.49
73685;BMP280;61985;51.070;14.064;2024-03-02T00:58:50;97579.31;;;8.49
73685;BMP280;61985;51.070;14.064;2024-03-02T01:01:16;97575.91;;;8.49
73685;BMP280;61985;51.070;14.064;2024-03-02T01:03:42;97571.59;;;8.51
73685;BMP280;61985;51.070;14.064;2024-03-02T01:06:08;97577.56;;;8.55
73685;BMP280;61985;51.070;14.064;2024-03-02T01:08:35;97577.25;;;8.53
73685;BMP280;61985;51.070;14.064;2024-03-02T01:11:01;97576.97;;;8.51
73685;BMP280;61985;51.070;14.064;2024-03-02T01:13:27;97568.47;;;8.53
73685;BMP280;61985;51.070;14.064;2024-03-02T01:15:52;97576.63;;;8.49
73685;BMP280;61985;51.070;14.064;2024-03-02T01:18:18;97573.22;;;8.49
73685;BMP280;61985;51.070;14.064;2024-03-02T01:20:44;97572.47;;;8.48
73685;BMP280;61985;51.070;14.064;2024-03-02T01:23:09;97569.34;;;8.50
73685;BMP280;61985;51.070;14.064;2024-03-02T01:25:35;97568.56;;;8.49
73685;BMP280;61985;51.070;14.064;2024-03-02T01:28:01;97563.22;;;8.49
73685;BMP280;61985;51.070;14.064;2024-03-02T01:30:26;97559.66;;;8.52
73685;BMP280;61985;51.070;14.064;2024-03-02T01:32:52;97559.97;;;8.54
73685;BMP280;61985;51.070;14.064;2024-03-02T01:35:17;97561.69;;;8.61
73685;BMP280;61985;51.070;14.064;2024-03-02T01:37:43;97562.75;;;8.64
73685;BMP280;61985;51.070;14.064;2024-03-02T01:40:09;97555.22;;;8.59
73685;BMP280;61985;51.070;14.064;2024-03-02T01:42:38;97560.59;;;8.59
73685;BMP280;61985;51.070;14.064;2024-03-02T01:45:08;97562.84;;;8.60
73685;BMP280;61985;51.070;14.064;2024-03-02T01:47:34;97560.94;;;8.61
73685;BMP280;61985;51.070;14.064;2024-03-02T01:50:00;97560.38;;;8.66
73685;BMP280;61985;51.070;14.064;2024-03-02T01:52:26;97556.50;;;8.67
73685;BMP280;61985;51.070;14.064;2024-03-02T01:54:52;97565.41;;;8.64
73685;BMP280;61985;51.070;14.064;2024-03-02T01:57:18;97556.50;;;8.67
73685;BMP280;61985;51.070;14.064;2024-03-02T01:59:44;97558.84;;;8.65
73685;BMP280;61985;51.070;14.064;2024-03-02T02:02:09;97557.69;;;8.66
73685;BMP280;61985;51.070;14.064;2024-03-02T02:04:35;97561.53;;;8.65
73685;BMP280;61985;51.070;14.064;2024-03-02T02:07:00;97561.25;;;8.63
73685;BMP280;61985;51.070;14.064;2024-03-02T02:09:26;97555.22;;;8.59
73685;BMP280;61985;51.070;14.064;2024-03-02T02:11:52;97548.81;;;8.56
73685;BMP280;61985;51.070;14.064;2024-03-02T02:14:17;97542.25;;;8.57
73685;BMP280;61985;51.070;14.064;2024-03-02T02:16:43;97548.38;;;8.58
73685;BMP280;61985;51.070;14.064;2024-03-02T02:19:08;97543.88;;;8.54
73685;BMP280;61985;51.070;14.064;2024-03-02T02:21:34;97549.25;;;8.54
73685;BMP280;61985;51.070;14.064;2024-03-02T02:24:00;97544.00;;;8.51
73685;BMP280;61985;51.070;14.064;2024-03-02T02:26:28;97555.16;;;8.49
73685;BMP280;61985;51.070;14.064;2024-03-02T02:28:54;97556.09;;;8.55
73685;BMP280;61985;51.070;14.064;2024-03-02T02:31:19;97557.41;;;8.51
73685;BMP280;61985;51.070;14.064;2024-03-02T02:33:45;97557.09;;;8.49
73685;BMP280;61985;51.070;14.064;2024-03-02T02:36:10;97547.88;;;8.50
73685;BMP280;61985;51.070;14.064;2024-03-02T02:38:42;97549.03;;;8.49
73685;BMP280;61985;51.070;14.064;2024-03-02T02:41:09;97553.25;;;8.50
73685;BMP280;61985;51.070;14.064;2024-03-02T02:43:34;97553.97;;;8.50
73685;BMP280;61985;51.070;14.064;2024-03-02T02:46:00;97551.31;;;8.50
73685;BMP280;61985;51.070;14.064;2024-03-02T02:48:25;97547.09;;;8.49
73685;BMP280;61985;51.070;14.064;2024-03-02T02:50:51;97556.25;;;8.52
73685;BMP280;61985;51.070;14.064;2024-03-02T02:53:16;97551.31;;;8.50
73685;BMP280;61985;51.070;14.064;2024-03-02T02:55:42;97549.78;;;8.49
73685;BMP280;61985;51.070;14.064;2024-03-02T02:58:12;97543.25;;;8.50
73685;BMP280;61985;51.070;14.064;2024-03-02T03:00:37;97548.47;;;8.54
73685;BMP280;61985;51.070;14.064;2024-03-02T03:03:03;97539.69;;;8.53
73685;BMP280;61985;51.070;14.064;2024-03-02T03:05:28;97544.19;;;8.57
73685;BMP280;61985;51.070;14.064;2024-03-02T03:07:54;97552.88;;;8.61
73685;BMP280;61985;51.070;14.064;2024-03-02T03:10:19;97558.03;;;8.55
73685;BMP280;61985;51.070;14.064;2024-03-02T03:12:47;97554.59;;;8.54
73685;BMP280;61985;51.070;14.064;2024-03-02T03:15:13;97554.59;;;8.54
73685;BMP280;61985;51.070;14.064;2024-03-02T03:17:38;97548.19;;;8.52
73685;BMP280;61985;51.070;14.064;2024-03-02T03:20:04;97552.53;;;8.59
73685;BMP280;61985;51.070;14.064;2024-03-02T03:22:31;97542.34;;;8.53
73685;BMP280;61985;51.070;14.064;2024-03-02T03:25:00;97551.94;;;8.54
73685;BMP280;61985;51.070;14.064;2024-03-02T03:27:25;97549.88;;;8.59
73685;BMP280;61985;51.070;14.064;2024-03-02T03:29:51;97548.38;;;8.58
73685;BMP280;61985;51.070;14.064;2024-03-02T03:32:17;97546.56;;;8.54
73685;BMP280;61985;51.070;14.064;2024-03-02T03:34:43;97540.75;;;8.56
73685;BMP280;61985;51.070;14.064;2024-03-02T03:37:08;97553.97;;;8.50
73685;BMP280;61985;51.070;14.064;2024-03-02T03:39:35;97540.25;;;8.48
73685;BMP280;61985;51.070;14.064;2024-03-02T03:42:03;97556.34;;;8.48
73685;BMP280;61985;51.070;14.064;2024-03-02T03:44:29;97558.47;;;8.53
73685;BMP280;61985;51.070;14.064;2024-03-02T03:46:54;97545.63;;;8.48
73685;BMP280;61985;51.070;14.064;2024-03-02T03:49:20;97544.09;;;8.47
73685;BMP280;61985;51.070;14.064;2024-03-02T03:51:45;97551.84;;;8.45
73685;BMP280;61985;51.070;14.064;2024-03-02T03:54:11;97550.22;;;8.48
73685;BMP280;61985;51.070;14.064;2024-03-02T03:56:37;97548.41;;;8.45
73685;BMP280;61985;51.070;14.064;2024-03-02T03:59:03;97550.13;;;8.51
73685;BMP280;61985;51.070;14.064;2024-03-02T04:01:30;97553.97;;;8.50
73685;BMP280;61985;51.070;14.064;2024-03-02T04:03:55;97545.19;;;8.50
73685;BMP280;61985;51.070;14.064;2024-03-02T04:06:21;97534.88;;;8.48
73685;BMP280;61985;51.070;14.064;2024-03-02T04:08:46;97546.38;;;8.49
73685;BMP280;61985;51.070;14.064;2024-03-02T04:11:11;97538.75;;;8.47
73685;BMP280;61985;51.070;14.064;2024-03-02T04:13:37;97542.59;;;8.46
73685;BMP280;61985;51.070;14.064;2024-03-02T04:16:02;97542.28;;;8.44
73685;BMP280;61985;51.070;14.064;2024-03-02T04:18:30;97543.16;;;8.41
73685;BMP280;61985;51.070;14.064;2024-03-02T04:20:56;97544.34;;;8.40
73685;BMP280;61985;51.070;14.064;2024-03-02T04:23:21;97543.59;;;8.40
73685;BMP280;61985;51.070;14.064;2024-03-02T04:25:46;97539.75;;;8.41
73685;BMP280;61985;51.070;14.064;2024-03-02T04:28:12;97547.88;;;8.37
73685;BMP280;61985;51.070;14.064;2024-03-02T04:30:37;97551.44;;;8.34
73685;BMP280;61985;51.070;14.064;2024-03-02T04:33:03;97558.00;;;8.33
73685;BMP280;61985;51.070;14.064;2024-03-02T04:35:29;97548.16;;;8.30
73685;BMP280;61985;51.070;14.064;2024-03-02T04:37:54;97567.22;;;8.32
73685;BMP280;61985;51.070;14.064;2024-03-02T04:40:19;97569.63;;;8.30
73685;BMP280;61985;51.070;14.064;2024-03-02T04:42:45;97570.03;;;8.28
73685;BMP280;61985;51.070;14.064;2024-03-02T04:45:10;97576.16;;;8.29
73685;BMP280;61985;51.070;14.064;2024-03-02T04:47:36;97575.72;;;8.30
73685;BMP280;61985;51.070;14.064;2024-03-02T04:50:01;97576.16;;;8.29
73685;BMP280;61985;51.070;14.064;2024-03-02T04:52:27;97576.91;;;8.29
73685;BMP280;61985;51.070;14.064;2024-03-02T04:54:52;97586.75;;;8.32
73685;BMP280;61985;51.070;14.064;2024-03-02T04:57:53;97594.94;;;8.29
73685;BMP280;61985;51.070;14.064;2024-03-02T05:00:21;97598.78;;;8.28
73685;BMP280;61985;51.070;14.064;2024-03-02T05:02:47;97606.72;;;8.31
73685;BMP280;61985;51.070;14.064;2024-03-02T05:05:12;97597.94;;;8.31
73685;BMP280;61985;51.070;14.064;2024-03-02T05:07:40;97604.03;;;8.31
73685;BMP280;61985;51.070;14.064;2024-03-02T05:10:08;97607.59;;;8.41
73685;BMP280;61985;51.070;14.064;2024-03-02T05:12:33;97606.94;;;8.37
73685;BMP280;61985;51.070;14.064;2024-03-02T05:15:11;97611.78;;;8.42
73685;BMP280;61985;51.070;14.064;2024-03-02T05:17:40;97613.25;;;8.43
73685;BMP280;61985;51.070;14.064;2024-03-02T05:20:06;97614.03;;;8.44
73685;BMP280;61985;51.070;14.064;2024-03-02T05:22:38;97622.06;;;8.44
73685;BMP280;61985;51.070;14.064;2024-03-02T05:25:04;97618.00;;;8.39
73685;BMP280;61985;51.070;14.064;2024-03-02T05:27:30;97626.38;;;8.41
73685;BMP280;61985;51.070;14.064;2024-03-02T05:29:56;97633.34;;;8.39
73685;BMP280;61985;51.070;14.064;2024-03-02T05:32:21;97629.59;;;8.36
73685;BMP280;61985;51.070;14.064;2024-03-02T05:34:47;97632.91;;;8.40
73685;BMP280;61985;51.070;14.064;2024-03-02T05:37:12;97633.34;;;8.39
73685;BMP280;61985;51.070;14.064;2024-03-02T05:39:38;97637.84;;;8.42
73685;BMP280;61985;51.070;14.064;2024-03-02T05:42:04;97629.59;;;8.36
73685;BMP280;61985;51.070;14.064;2024-03-02T05:44:29;97639.47;;;8.39
73685;BMP280;61985;51.070;14.064;2024-03-02T05:46:55;97634.97;;;8.36
73685;BMP280;61985;51.070;14.064;2024-03-02T05:49:21;97642.38;;;8.32
73685;BMP280;61985;51.070;14.064;2024-03-02T05:51:46;97644.75;;;8.30
73685;BMP280;61985;51.070;14.064;2024-03-02T05:54:12;97647.88;;;8.28
73685;BMP280;61985;51.070;14.064;2024-03-02T05:56:37;97654.72;;;8.29
73685;BMP280;61985;51.070;14.064;2024-03-02T05:59:03;97668.66;;;8.37
73685;BMP280;61985;51.070;14.064;2024-03-02T06:01:48;97666.53;;;8.32
73685;BMP280;61985;51.070;14.064;2024-03-02T06:04:16;97661.16;;;8.32
73685;BMP280;61985;51.070;14.064;2024-03-02T06:06:42;97667.81;;;8.27
73685;BMP280;61985;51.070;14.064;2024-03-02T06:09:08;97670.63;;;8.24
73685;BMP280;61985;51.070;14.064;2024-03-02T06:11:37;97666.00;;;8.24
73685;BMP280;61985;51.070;14.064;2024-03-02T06:14:04;97670.41;;;8.31
73685;BMP280;61985;51.070;14.064;2024-03-02T06:16:30;97671.25;;;8.28
73685;BMP280;61985;51.070;14.064;2024-03-02T06:18:55;97668.56;;;8.28
73685;BMP280;61985;51.070;14.064;2024-03-02T06:21:25;97675.13;;;8.27
73685;BMP280;61985;51.070;14.064;2024-03-02T06:23:51;97675.88;;;8.27
73685;BMP280;61985;51.070;14.064;2024-03-02T06:26:17;97679.66;;;8.30
73685;BMP280;61985;51.070;14.064;2024-03-02T06:28:43;97676.63;;;8.28
73685;BMP280;61985;51.070;14.064;2024-03-02T06:31:08;97683.25;;;8.23
73685;BMP280;61985;51.070;14.064;2024-03-02T06:33:34;97681.34;;;8.24
73685;BMP280;61985;51.070;14.064;2024-03-02T06:36:00;97678.31;;;8.22
73685;BMP280;61985;51.070;14.064;2024-03-02T06:38:25;97686.72;;;8.24
73685;BMP280;61985;51.070;14.064;2024-03-02T06:40:51;97692.09;;;8.24
73685;BMP280;61985;51.070;14.064;2024-03-02T06:43:16;97691.22;;;8.27
73685;BMP280;61985;51.070;14.064;2024-03-02T06:45:42;97697.03;;;8.25
73685;BMP280;61985;51.070;14.064;2024-03-02T06:48:07;97698.63;;;8.23
73685;BMP280;61985;51.070;14.064;2024-03-02T06:50:33;97705.16;;;8.22
73685;BMP280;61985;51.070;14.064;2024-03-02T06:52:59;97710.44;;;8.25
73685;BMP280;61985;51.070;14.064;2024-03-02T06:55:25;97712.34;;;8.25
73685;BMP280;61985;51.070;14.064;2024-03-02T06:57:51;97710.53;;;8.22
73685;BMP280;61985;51.070;14.064;2024-03-02T07:00:17;97711.19;;;8.26
73685;BMP280;61985;51.070;14.064;2024-03-02T07:02:43;97710.97;;;8.20
73685;BMP280;61985;51.070;14.064;2024-03-02T07:05:10;97719.44;;;8.19
73685;BMP280;61985;51.070;14.064;2024-03-02T07:07:35;97720.22;;;8.19
73685;BMP280;61985;51.070;14.064;2024-03-02T07:10:05;97724.81;;;8.19
73685;BMP280;61985;51.070;14.064;2024-03-02T07:12:31;97726.75;;;8.18
73685;BMP280;61985;51.070;14.064;2024-03-02T07:14:57;97719.13;;;8.16
73685;BMP280;61985;51.070;14.064;2024-03-02T07:17:28;97726.00;;;8.18
73685;BMP280;61985;51.070;14.064;2024-03-02T07:19:54;97729.00;;;8.20
73685;BMP280;61985;51.070;14.064;2024-03-02T07:22:20;97738.13;;;8.22
73685;BMP280;61985;51.070;14.064;2024-03-02T07:24:45;97743.94;;;8.21
73685;BMP280;61985;51.070;14.064;2024-03-02T07:27:11;97744.38;;;8.19
73685;BMP280;61985;51.070;14.064;2024-03-02T07:29:37;97742.72;;;8.22
73685;BMP280;61985;51.070;14.064;2024-03-02T07:32:04;97746.63;;;8.21
73685;BMP280;61985;51.070;14.064;2024-03-02T07:34:29;97746.19;;;8.22
73685;BMP280;61985;51.070;14.064;2024-03-02T07:36:55;97752.00;;;8.21
73685;BMP280;61985;51.070;14.064;2024-03-02T07:39:21;97763.44;;;8.21
73685;BMP280;61985;51.070;14.064;2024-03-02T07:41:46;97766.13;;;8.21
73685;BMP280;61985;51.070;14.064;2024-03-02T07:44:12;97765.72;;;8.23
73685;BMP280;61985;51.070;14.064;2024-03-02T07:46:42;97782.97;;;8.22
73685;BMP280;61985;51.070;14.064;2024-03-02T07:49:08;97782.34;;;8.18
73685;BMP280;61985;51.070;14.064;2024-03-02T07:51:33;97780.09;;;8.16
73685;BMP280;61985;51.070;14.064;2024-03-02T07:53:58;97783.44;;;8.20
73685;BMP280;61985;51.070;14.064;2024-03-02T07:56:24;97785.66;;;8.22
73685;BMP280;61985;51.070;14.064;2024-03-02T07:58:50;97788.34;;;8.22
73685;BMP280;61985;51.070;14.064;2024-03-02T08:01:15;97793.28;;;8.23
73685;BMP280;61985;51.070;14.064;2024-03-02T08:03:40;97788.34;;;8.22
73685;BMP280;61985;51.070;14.064;2024-03-02T08:06:06;97786.75;;;8.24
73685;BMP280;61985;51.070;14.064;2024-03-02T08:08:32;97799.75;;;8.26
73685;BMP280;61985;51.070;14.064;2024-03-02T08:10:57;97802.44;;;8.26
73685;BMP280;61985;51.070;14.064;2024-03-02T08:13:22;97798.16;;;8.28
73685;BMP280;61985;51.070;14.064;2024-03-02T08:15:48;97800.06;;;8.28
73685;BMP280;61985;51.070;14.064;2024-03-02T08:18:13;97807.78;;;8.26
73685;BMP280;61985;51.070;14.064;2024-03-02T08:20:38;97808.53;;;8.26
73685;BMP280;61985;51.070;14.064;2024-03-02T08:23:05;97815.44;;;8.27
73685;BMP280;61985;51.070;14.064;2024-03-02T08:25:30;97813.91;;;8.26
73685;BMP280;61985;51.070;14.064;2024-03-02T08:27:56;97806.63;;;8.27
73685;BMP280;61985;51.070;14.064;2024-03-02T08:30:21;97801.59;;;8.29
73685;BMP280;61985;51.070;14.064;2024-03-02T08:32:47;97809.63;;;8.29
73685;BMP280;61985;51.070;14.064;2024-03-02T08:35:13;97810.81;;;8.28
73685;BMP280;61985;51.070;14.064;2024-03-02T08:37:39;97816.19;;;8.28
73685;BMP280;61985;51.070;14.064;2024-03-02T08:40:07;97813.50;;;8.28
73685;BMP280;61985;51.070;14.064;2024-03-02T08:42:33;97809.63;;;8.29
73685;BMP280;61985;51.070;14.064;2024-03-02T08:44:59;97804.59;;;8.31
73685;BMP280;61985;51.070;14.064;2024-03-02T08:47:26;97795.34;;;8.32
73685;BMP280;61985;51.070;14.064;2024-03-02T08:49:52;97800.28;;;8.33
73685;BMP280;61985;51.070;14.064;2024-03-02T08:52:17;97802.22;;;8.33
73685;BMP280;61985;51.070;14.064;2024-03-02T08:54:43;97805.66;;;8.33
73685;BMP280;61985;51.070;14.064;2024-03-02T08:57:08;97805.97;;;8.35
73685;BMP280;61985;51.070;14.064;2024-03-02T08:59:34;97803.84;;;8.43
73685;BMP280;61985;51.070;14.064;2024-03-02T09:01:59;97801.38;;;8.36
73685;BMP280;61985;51.070;14.064;2024-03-02T09:04:24;97811.28;;;8.39
73685;BMP280;61985;51.070;14.064;2024-03-02T09:06:50;97812.56;;;8.47
73685;BMP280;61985;51.070;14.064;2024-03-02T09:09:15;97810.44;;;8.42
73685;BMP280;61985;51.070;14.064;2024-03-02T09:11:41;97809.44;;;8.49
73685;BMP280;61985;51.070;14.064;2024-03-02T09:14:06;97819.22;;;8.55
73685;BMP280;61985;51.070;14.064;2024-03-02T09:16:31;97815.34;;;8.57
73685;BMP280;61985;51.070;14.064;2024-03-02T09:18:57;97826.00;;;8.60
73685;BMP280;61985;51.070;14.064;2024-03-02T09:21:23;97823.53;;;8.66
73685;BMP280;61985;51.070;14.064;2024-03-02T09:23:48;97827.94;;;8.72
73685;BMP280;61985;51.070;14.064;2024-03-02T09:26:14;97830.63;;;8.72
73685;BMP280;61985;51.070;14.064;2024-03-02T09:28:43;97827.00;;;8.79
73685;BMP280;61985;51.070;14.064;2024-03-02T09:31:09;97831.47;;;8.69
73685;BMP280;61985;51.070;14.064;2024-03-02T09:33:34;97828.25;;;8.74
73685;BMP280;61985;51.070;14.064;2024-03-02T09:36:00;97844.69;;;8.77
73685;BMP280;61985;51.070;14.064;2024-03-02T09:38:25;97834.47;;;8.84
73685;BMP280;61985;51.070;14.064;2024-03-02T09:40:51;97840.06;;;8.77
73685;BMP280;61985;51.070;14.064;2024-03-02T09:43:16;97834.94;;;8.83
73685;BMP280;61985;51.070;14.064;2024-03-02T09:45:42;97831.25;;;8.89
73685;BMP280;61985;51.070;14.064;2024-03-02T09:48:08;97827.72;;;9.05
73685;BMP280;61985;51.070;14.064;2024-03-02T09:50:33;97824.59;;;9.20
73685;BMP280;61985;51.070;14.064;2024-03-02T09:52:59;97808.41;;;9.32
73685;BMP280;61985;51.070;14.064;2024-03-02T09:55:24;97811.16;;;9.42
73685;BMP280;61985;51.070;14.064;2024-03-02T09:57:50;97814.50;;;9.46
73685;BMP280;61985;51.070;14.064;2024-03-02T10:00:17;97815.53;;;9.61
73685;BMP280;61985;51.070;14.064;2024-03-02T10:02:42;97813.59;;;9.84
73685;BMP280;61985;51.070;14.064;2024-03-02T10:05:11;97812.19;;;9.92
73685;BMP280;61985;51.070;14.064;2024-03-02T10:07:37;97809.69;;;10.07
73685;BMP280;61985;51.070;14.064;2024-03-02T10:10:13;97806.31;;;10.16
73685;BMP280;61985;51.070;14.064;2024-03-02T10:12:40;97799.16;;;10.13
73685;BMP280;61985;51.070;14.064;2024-03-02T10:15:05;97799.84;;;10.04
73685;BMP280;61985;51.070;14.064;2024-03-02T10:17:31;97805.66;;;10.02
73685;BMP280;61985;51.070;14.064;2024-03-02T10:19:58;97805.47;;;10.19
73685;BMP280;61985;51.070;14.064;2024-03-02T10:22:23;97808.44;;;10.21
73685;BMP280;61985;51.070;14.064;2024-03-02T10:24:49;97813.94;;;10.39
73685;BMP280;61985;51.070;14.064;2024-03-02T10:27:22;97811.50;;;10.63
73685;BMP280;61985;51.070;14.064;2024-03-02T10:29:49;97804.81;;;10.77
73685;BMP280;61985;51.070;14.064;2024-03-02T10:32:15;97801.03;;;10.75
73685;BMP280;61985;51.070;14.064;2024-03-02T10:34:42;97804.66;;;10.81
73685;BMP280;61985;51.070;14.064;2024-03-02T10:37:08;97811.66;;;10.69
73685;BMP280;61985;51.070;14.064;2024-03-02T10:39:35;97811.03;;;10.65
73685;BMP280;61985;51.070;14.064;2024-03-02T10:42:08;97808.28;;;10.87
73685;BMP280;61985;51.070;14.064;2024-03-02T10:44:34;97809.16;;;10.93
73685;BMP280;61985;51.070;14.064;2024-03-02T10:47:01;97812.91;;;10.86
73685;BMP280;61985;51.070;14.064;2024-03-02T10:49:29;97816.66;;;10.89
73685;BMP280;61985;51.070;14.064;2024-03-02T10:51:55;97812.91;;;10.86
73685;BMP280;61985;51.070;14.064;2024-03-02T10:54:21;97811.44;;;10.95
73685;BMP280;61985;51.070;14.064;2024-03-02T10:56:52;97808.16;;;11.18
73685;BMP280;61985;51.070;14.064;2024-03-02T10:59:28;97800.38;;;11.11
73685;BMP280;61985;51.070;14.064;2024-03-02T11:01:58;97796.56;;;10.90
73685;BMP280;61985;51.070;14.064;2024-03-02T11:04:28;97789.53;;;10.83
73685;BMP280;61985;51.070;14.064;2024-03-02T11:07:06;97798.53;;;10.80
73685;BMP280;61985;51.070;14.064;2024-03-02T11:09:41;97789.25;;;10.81
73685;BMP280;61985;51.070;14.064;2024-03-02T11:14:37;97793.44;;;10.92
73685;BMP280;61985;51.070;14.064;2024-03-02T11:17:06;97801.22;;;10.89
73685;BMP280;61985;51.070;14.064;2024-03-02T11:19:32;97794.06;;;10.86
73685;BMP280;61985;51.070;14.064;2024-03-02T11:21:59;97792.50;;;10.76
73685;BMP280;61985;51.070;14.064;2024-03-02T11:26:58;97785.53;;;10.57
73685;BMP280;61985;51.070;14.064;2024-03-02T11:29:42;97793.13;;;10.40
73685;BMP280;61985;51.070;14.064;2024-03-02T11:32:15;97797.44;;;10.28
73685;BMP280;61985;51.070;14.064;2024-03-02T11:34:42;97802.66;;;10.32
73685;BMP280;61985;51.070;14.064;2024-03-02T11:37:12;97810.72;;;10.22
73685;BMP280;61985;51.070;14.064;2024-03-02T11:39:39;97796.47;;;10.13
73685;BMP280;61985;51.070;14.064;2024-03-02T11:42:08;97794.63;;;10.09
73685;BMP280;61985;51.070;14.064;2024-03-02T11:44:35;97791.59;;;9.98
73685;BMP280;61985;51.070;14.064;2024-03-02T11:47:02;97792.47;;;9.95
73685;BMP280;61985;51.070;14.064;2024-03-02T11:49:39;97795.84;;;9.86
73685;BMP280;61985;51.070;14.064;2024-03-02T11:52:05;97788.34;;;9.81
73685;BMP280;61985;51.070;14.064;2024-03-02T11:54:35;97784.88;;;9.81
73685;BMP280;61985;51.070;14.064;2024-03-02T11:57:02;97783.81;;;9.78
73685;BMP280;61985;51.070;14.064;2024-03-02T11:59:31;97788.00;;;9.79
73685;BMP280;61985;51.070;14.064;2024-03-02T12:01:57;97788.34;;;9.81
73685;BMP280;61985;51.070;14.064;2024-03-02T12:04:23;97788.47;;;9.78
73685;BMP280;61985;51.070;14.064;2024-03-02T12:06:55;97785.72;;;9.68
73685;BMP280;61985;51.070;14.064;2024-03-02T12:09:21;97792.28;;;9.67
73685;BMP280;61985;51.070;14.064;2024-03-02T12:11:46;97785.41;;;9.66
73685;BMP280;61985;51.070;14.064;2024-03-02T12:14:12;97792.28;;;9.67
73685;BMP280;61985;51.070;14.064;2024-03-02T12:16:44;97774.63;;;9.66
73685;BMP280;61985;51.070;14.064;2024-03-02T12:19:09;97782.34;;;9.77
73685;BMP280;61985;51.070;14.064;2024-03-02T12:21:35;97787.19;;;9.91
73685;BMP280;61985;51.070;14.064;2024-03-02T12:24:01;97782.25;;;9.90
73685;BMP280;61985;51.070;14.064;2024-03-02T12:26:28;97788.53;;;9.87
73685;BMP280;61985;51.070;14.064;2024-03-02T12:28:53;97791.22;;;9.87
73685;BMP280;61985;51.070;14.064;2024-03-02T12:31:20;97785.28;;;9.92
73685;BMP280;61985;51.070;14.064;2024-03-02T12:33:46;97779.88;;;9.92
73685;BMP280;61985;51.070;14.064;2024-03-02T12:36:13;97783.94;;;9.97
73685;BMP280;61985;51.070;14.064;2024-03-02T12:38:43;97791.59;;;9.98
73685;BMP280;61985;51.070;14.064;2024-03-02T12:41:09;97784.13;;;10.02
73685;BMP280;61985;51.070;14.064;2024-03-02T12:43:34;97785.34;;;10.01
73685;BMP280;61985;51.070;14.064;2024-03-02T12:46:00;97785.91;;;10.05
73685;BMP280;61985;51.070;14.064;2024-03-02T12:48:25;97789.91;;;10.14
73685;BMP280;61985;51.070;14.064;2024-03-02T12:50:51;97789.31;;;10.19
73685;BMP280;61985;51.070;14.064;2024-03-02T12:53:16;97783.91;;;10.19
73685;BMP280;61985;51.070;14.064;2024-03-02T12:55:42;97788.56;;;10.18
73685;BMP280;61985;51.070;14.064;2024-03-02T12:58:16;97777.78;;;10.18
73685;BMP280;61985;51.070;14.064;2024-03-02T13:00:42;97771.97;;;10.20
73685;BMP280;61985;51.070;14.064;2024-03-02T13:03:07;97784.09;;;10.24
73685;BMP280;61985;51.070;14.064;2024-03-02T13:05:33;97780.16;;;10.16
73685;BMP280;61985;51.070;14.064;2024-03-02T13:07:59;97773.41;;;10.12
73685;BMP280;61985;51.070;14.064;2024-03-02T13:10:28;97768.03;;;10.12
73685;BMP280;61985;51.070;14.064;2024-03-02T13:12:54;97776.09;;;10.12
73685;BMP280;61985;51.070;14.064;2024-03-02T13:15:19;97778.84;;;10.21
73685;BMP280;61985;51.070;14.064;2024-03-02T13:17:45;97782.41;;;10.18
73685;BMP280;61985;51.070;14.064;2024-03-02T13:20:14;97774.94;;;10.13
73685;BMP280;61985;51.070;14.064;2024-03-02T13:22:40;97772.84;;;10.17
73685;BMP280;61985;51.070;14.064;2024-03-02T13:25:05;97763.25;;;10.16
73685;BMP280;61985;51.070;14.064;2024-03-02T13:27:33;97766.53;;;10.10
73685;BMP280;61985;51.070;14.064;2024-03-02T13:29:59;97771.28;;;10.06
73685;BMP280;61985;51.070;14.064;2024-03-02T13:32:24;97768.25;;;9.95
73685;BMP280;61985;51.070;14.064;2024-03-02T13:34:51;97770.06;;;9.98
73685;BMP280;61985;51.070;14.064;2024-03-02T13:37:16;97765.56;;;9.95
73685;BMP280;61985;51.070;14.064;2024-03-02T13:39:41;97776.19;;;9.99
73685;BMP280;61985;51.070;14.064;2024-03-02T13:42:08;97775.75;;;10.00
73685;BMP280;61985;51.070;14.064;2024-03-02T13:44:34;97772.03;;;10.07
73685;BMP280;61985;51.070;14.064;2024-03-02T13:47:00;97773.22;;;10.06
73685;BMP280;61985;51.070;14.064;2024-03-02T13:49:26;97769.03;;;10.05
73685;BMP280;61985;51.070;14.064;2024-03-02T13:52:00;97773.28;;;10.15
73685;BMP280;61985;51.070;14.064;2024-03-02T13:54:28;97764.78;;;10.17
73685;BMP280;61985;51.070;14.064;2024-03-02T13:56:53;97764.59;;;10.11
73685;BMP280;61985;51.070;14.064;2024-03-02T13:59:19;97777.91;;;10.15
73685;BMP280;61985;51.070;14.064;2024-03-02T14:01:44;97764.44;;;10.15
73685;BMP280;61985;51.070;14.064;2024-03-02T14:04:10;97763.91;;;10.20
73685;BMP280;61985;51.070;14.064;2024-03-02T14:06:35;97762.25;;;10.22
73685;BMP280;61985;51.070;14.064;2024-03-02T14:09:01;97762.13;;;10.26